sensor_id;sensor_type;location;lat;lon;timestamp;pressure;altitude;pressure_sealevel;temperature;humidity
13952;BME280;39535;52.192;9.886;2023-02-15T00:01:34;102075.53;;;4.57;88.39
13952;BME280;39535;52.192;9.886;2023-02-15T00:04:01;102057.13;;;4.48;89.61
13952;BME280;39535;52.192;9.886;2023-02-15T00:06:28;102022.59;;;4.46;90.31
13952;BME280;39535;52.192;9.886;2023-02-15T00:08:54;102022.03;;;4.54;89.76
13952;BME280;39535;52.192;9.886;2023-02-15T00:11:21;102029.69;;;4.51;88.99
13952;BME280;39535;52.192;9.886;2023-02-15T00:14:03;102056.03;;;4.40;87.73
13952;BME280;39535;52.192;9.886;2023-02-15T00:16:30;102076.34;;;4.29;87.31
13952;BME280;39535;52.192;9.886;2023-02-15T00:18:56;102077.75;;;4.19;87.83
13952;BME280;39535;52.192;9.886;2023-02-15T00:21:26;102072.44;;;4.14;88.18
13952;BME280;39535;52.192;9.886;2023-02-15T00:23:53;102062.69;;;3.82;89.03
13952;BME280;39535;52.192;9.886;2023-02-15T00:26:19;102048.56;;;3.72;89.76
13952;BME280;39535;52.192;9.886;2023-02-15T00:28:46;102008.19;;;3.74;90.94
13952;BME280;39535;52.192;9.886;2023-02-15T00:31:14;101989.31;;;3.76;91.18
13952;BME280;39535;52.192;9.886;2023-02-15T00:33:40;101955.00;;;3.79;92.12
13952;BME280;39535;52.192;9.886;2023-02-15T00:36:08;101927.72;;;3.62;92.81
13952;BME280;39535;52.192;9.886;2023-02-15T00:38:35;101909.19;;;3.73;93.03
13952;BME280;39535;52.192;9.886;2023-02-15T00:41:03;101915.03;;;3.68;92.29
13952;BME280;39535;52.192;9.886;2023-02-15T00:43:31;101911.63;;;3.69;92.33
13952;BME280;39535;52.192;9.886;2023-02-15T00:45:58;101908.41;;;3.76;92.62
13952;BME280;39535;52.192;9.886;2023-02-15T00:48:26;101900.91;;;3.84;92.58
13952;BME280;39535;52.192;9.886;2023-02-15T00:50:54;101902.66;;;3.85;92.03
13952;BME280;39535;52.192;9.886;2023-02-15T00:53:21;101912.94;;;3.83;92.10
13952;BME280;39535;52.192;9.886;2023-02-15T00:55:48;101918.91;;;3.82;91.68
13952;BME280;39535;52.192;9.886;2023-02-15T00:58:15;101923.06;;;3.77;91.66
13952;BME280;39535;52.192;9.886;2023-02-15T01:00:43;101910.09;;;3.75;91.98
13952;BME280;39535;52.192;9.886;2023-02-15T01:03:10;101911.03;;;3.77;92.47
13952;BME280;39535;52.192;9.886;2023-02-15T01:05:37;101903.22;;;3.76;91.54
13952;BME280;39535;52.192;9.886;2023-02-15T01:08:04;101909.25;;;3.75;91.91
13952;BME280;39535;52.192;9.886;2023-02-15T01:10:31;101890.97;;;3.69;93.13
13952;BME280;39535;52.192;9.886;2023-02-15T01:12:57;101863.13;;;3.87;93.57
13952;BME280;39535;52.192;9.886;2023-02-15T01:15:24;101854.97;;;4.02;93.71
13952;BME280;39535;52.192;9.886;2023-02-15T01:17:51;101864.63;;;4.08;93.52
13952;BME280;39535;52.192;9.886;2023-02-15T01:20:18;101846.59;;;4.09;93.31
13952;BME280;39535;52.192;9.886;2023-02-15T01:22:47;101869.06;;;4.12;92.82
13952;BME280;39535;52.192;9.886;2023-02-15T01:25:15;101886.81;;;4.30;91.97
13952;BME280;39535;52.192;9.886;2023-02-15T01:27:42;101909.59;;;4.42;91.43
13952;BME280;39535;52.192;9.886;2023-02-15T01:30:09;101927.13;;;4.52;90.44
13952;BME280;39535;52.192;9.886;2023-02-15T01:32:35;101944.47;;;4.54;89.93
13952;BME280;39535;52.192;9.886;2023-02-15T01:35:02;101953.25;;;4.61;89.63
13952;BME280;39535;52.192;9.886;2023-02-15T01:37:30;101968.09;;;4.67;89.66
13952;BME280;39535;52.192;9.886;2023-02-15T01:39:58;101980.16;;;4.66;89.03
13952;BME280;39535;52.192;9.886;2023-02-15T01:42:25;101998.09;;;4.62;89.15
13952;BME280;39535;52.192;9.886;2023-02-15T01:44:53;102005.84;;;4.62;88.10
13952;BME280;39535;52.192;9.886;2023-02-15T01:47:32;102017.00;;;4.59;88.13
13952;BME280;39535;52.192;9.886;2023-02-15T01:50:06;102028.75;;;4.49;87.57
13952;BME280;39535;52.192;9.886;2023-02-15T01:52:37;102039.03;;;4.48;87.54
13952;BME280;39535;52.192;9.886;2023-02-15T01:55:07;102038.09;;;4.44;87.41
13952;BME280;39535;52.192;9.886;2023-02-15T01:57:34;102043.34;;;4.47;86.88
13952;BME280;39535;52.192;9.886;2023-02-15T02:00:06;102060.25;;;4.37;86.41
13952;BME280;39535;52.192;9.886;2023-02-15T02:02:35;102071.25;;;4.30;86.31
13952;BME280;39535;52.192;9.886;2023-02-15T02:05:03;102087.34;;;3.97;86.25
13952;BME280;39535;52.192;9.886;2023-02-15T02:07:33;102054.66;;;3.74;87.54
13952;BME280;39535;52.192;9.886;2023-02-15T02:10:02;102029.84;;;3.77;88.08
13952;BME280;39535;52.192;9.886;2023-02-15T02:12:30;102016.09;;;3.78;88.54
13952;BME280;39535;52.192;9.886;2023-02-15T02:14:58;102001.69;;;3.85;88.22
13952;BME280;39535;52.192;9.886;2023-02-15T02:17:36;102001.78;;;3.88;88.37
13952;BME280;39535;52.192;9.886;2023-02-15T02:20:25;102004.34;;;3.87;87.96
13952;BME280;39535;52.192;9.886;2023-02-15T02:23:09;102000.13;;;3.90;87.97
13952;BME280;39535;52.192;9.886;2023-02-15T02:26:04;102000.19;;;3.92;87.48
13952;BME280;39535;52.192;9.886;2023-02-15T02:29:05;102005.25;;;3.89;87.73
13952;BME280;39535;52.192;9.886;2023-02-15T02:31:53;102001.91;;;3.91;87.31
13952;BME280;39535;52.192;9.886;2023-02-15T02:34:33;102000.91;;;3.88;86.90
13952;BME280;39535;52.192;9.886;2023-02-15T02:37:08;102006.75;;;3.82;87.03
13952;BME280;39535;52.192;9.886;2023-02-15T02:39:43;102005.53;;;3.71;86.95
13952;BME280;39535;52.192;9.886;2023-02-15T02:42:19;102002.47;;;3.58;86.49
13952;BME280;39535;52.192;9.886;2023-02-15T02:44:55;101991.94;;;3.52;86.90
13952;BME280;39535;52.192;9.886;2023-02-15T02:47:30;101984.06;;;3.48;87.18
13952;BME280;39535;52.192;9.886;2023-02-15T02:50:02;101971.88;;;3.44;87.30
13952;BME280;39535;52.192;9.886;2023-02-15T02:52:38;101971.72;;;3.39;87.61
13952;BME280;39535;52.192;9.886;2023-02-15T02:55:06;101964.13;;;3.44;87.79
13952;BME280;39535;52.192;9.886;2023-02-15T02:57:37;101955.25;;;3.35;87.91
13952;BME280;39535;52.192;9.886;2023-02-15T03:00:08;101930.09;;;3.30;88.56
13952;BME280;39535;52.192;9.886;2023-02-15T03:02:37;101919.75;;;3.30;89.06
13952;BME280;39535;52.192;9.886;2023-02-15T03:05:11;101918.19;;;3.35;88.50
13952;BME280;39535;52.192;9.886;2023-02-15T03:07:41;101907.06;;;3.36;88.63
13952;BME280;39535;52.192;9.886;2023-02-15T03:10:09;101900.91;;;3.32;88.59
13952;BME280;39535;52.192;9.886;2023-02-15T03:12:38;101903.88;;;3.19;88.92
13952;BME280;39535;52.192;9.886;2023-02-15T03:15:08;101889.75;;;3.08;89.38
13952;BME280;39535;52.192;9.886;2023-02-15T03:17:38;101882.78;;;3.05;89.08
13952;BME280;39535;52.192;9.886;2023-02-15T03:20:10;101864.84;;;3.08;89.36
13952;BME280;39535;52.192;9.886;2023-02-15T03:22:44;101867.28;;;3.05;89.60
13952;BME280;39535;52.192;9.886;2023-02-15T03:25:15;101858.38;;;2.95;89.25
13952;BME280;39535;52.192;9.886;2023-02-15T03:27:45;101852.28;;;2.93;90.21
13952;BME280;39535;52.192;9.886;2023-02-15T03:30:13;101840.34;;;2.95;90.27
13952;BME280;39535;52.192;9.886;2023-02-15T03:32:41;101828.97;;;2.90;91.28
13952;BME280;39535;52.192;9.886;2023-02-15T03:35:10;101816.66;;;2.83;91.76
13952;BME280;39535;52.192;9.886;2023-02-15T03:37:40;101791.22;;;2.92;92.26
13952;BME280;39535;52.192;9.886;2023-02-15T03:40:10;101782.59;;;2.92;92.11
13952;BME280;39535;52.192;9.886;2023-02-15T03:43:00;101780.09;;;2.95;91.94
13952;BME280;39535;52.192;9.886;2023-02-15T03:45:31;101779.25;;;2.94;91.75
13952;BME280;39535;52.192;9.886;2023-02-15T03:48:00;101777.84;;;3.04;91.79
13952;BME280;39535;52.192;9.886;2023-02-15T03:50:30;101777.13;;;3.08;91.80
13952;BME280;39535;52.192;9.886;2023-02-15T03:53:18;101775.53;;;3.12;92.15
13952;BME280;39535;52.192;9.886;2023-02-15T03:55:47;101770.00;;;3.01;92.82
13952;BME280;39535;52.192;9.886;2023-02-15T03:58:13;101753.97;;;3.10;93.15
13952;BME280;39535;52.192;9.886;2023-02-15T04:00:59;101749.94;;;3.18;92.73
13952;BME280;39535;52.192;9.886;2023-02-15T04:03:48;101752.03;;;3.30;92.54
13952;BME280;39535;52.192;9.886;2023-02-15T04:06:19;101767.50;;;3.30;91.73
13952;BME280;39535;52.192;9.886;2023-02-15T04:08:45;101779.53;;;3.29;91.40
13952;BME280;39535;52.192;9.886;2023-02-15T04:11:30;101797.63;;;3.29;91.16
13952;BME280;39535;52.192;9.886;2023-02-15T04:13:56;101811.44;;;3.31;90.47
13952;BME280;39535;52.192;9.886;2023-02-15T04:16:24;101827.66;;;3.27;89.95
13952;BME280;39535;52.192;9.886;2023-02-15T04:18:49;101846.19;;;3.15;89.11
13952;BME280;39535;52.192;9.886;2023-02-15T04:21:34;101855.78;;;3.20;88.88
13952;BME280;39535;52.192;9.886;2023-02-15T04:24:19;101871.19;;;3.18;88.63
13952;BME280;39535;52.192;9.886;2023-02-15T04:27:03;101885.16;;;3.23;88.29
13952;BME280;39535;52.192;9.886;2023-02-15T04:29:31;101895.47;;;3.23;87.77
13952;BME280;39535;52.192;9.886;2023-02-15T04:31:59;101898.84;;;3.22;87.72
13952;BME280;39535;52.192;9.886;2023-02-15T04:34:26;101910.94;;;3.23;87.45
13952;BME280;39535;52.192;9.886;2023-02-15T04:36:54;101923.59;;;3.17;87.21
13952;BME280;39535;52.192;9.886;2023-02-15T04:39:20;101926.16;;;3.15;86.53
13952;BME280;39535;52.192;9.886;2023-02-15T04:41:46;101936.28;;;3.11;86.41
13952;BME280;39535;52.192;9.886;2023-02-15T04:44:14;101932.56;;;3.03;87.54
13952;BME280;39535;52.192;9.886;2023-02-15T04:46:40;101915.34;;;3.02;87.77
13952;BME280;39535;52.192;9.886;2023-02-15T04:49:08;101912.69;;;3.00;87.26
13952;BME280;39535;52.192;9.886;2023-02-15T04:51:34;101908.78;;;2.87;87.81
13952;BME280;39535;52.192;9.886;2023-02-15T04:54:02;101894.38;;;2.68;88.08
13952;BME280;39535;52.192;9.886;2023-02-15T04:56:28;101878.47;;;2.57;88.85
13952;BME280;39535;52.192;9.886;2023-02-15T04:58:56;101860.63;;;2.62;89.80
13952;BME280;39535;52.192;9.886;2023-02-15T05:01:22;101843.28;;;2.58;89.51
13952;BME280;39535;52.192;9.886;2023-02-15T05:03:49;101833.28;;;2.67;89.61
13952;BME280;39535;52.192;9.886;2023-02-15T05:06:15;101836.81;;;2.69;89.43
13952;BME280;39535;52.192;9.886;2023-02-15T05:08:42;101831.38;;;2.62;89.46
13952;BME280;39535;52.192;9.886;2023-02-15T05:11:09;101822.84;;;2.63;89.44
13952;BME280;39535;52.192;9.886;2023-02-15T05:13:36;101831.63;;;2.68;88.96
13952;BME280;39535;52.192;9.886;2023-02-15T05:16:02;101837.94;;;2.53;88.93
13952;BME280;39535;52.192;9.886;2023-02-15T05:18:29;101843.09;;;2.53;88.85
13952;BME280;39535;52.192;9.886;2023-02-15T05:20:55;101832.88;;;2.55;88.39
13952;BME280;39535;52.192;9.886;2023-02-15T05:23:22;101840.66;;;2.56;89.03
13952;BME280;39535;52.192;9.886;2023-02-15T05:25:49;101841.09;;;2.45;89.07
13952;BME280;39535;52.192;9.886;2023-02-15T05:28:36;101833.44;;;2.48;89.14
13952;BME280;39535;52.192;9.886;2023-02-15T05:31:06;101827.34;;;2.46;88.53
13952;BME280;39535;52.192;9.886;2023-02-15T05:33:33;101823.19;;;2.49;89.11
13952;BME280;39535;52.192;9.886;2023-02-15T05:36:00;101828.34;;;2.49;89.06
13952;BME280;39535;52.192;9.886;2023-02-15T05:38:26;101817.31;;;2.29;90.31
13952;BME280;39535;52.192;9.886;2023-02-15T05:40:53;101784.81;;;2.33;90.94
13952;BME280;39535;52.192;9.886;2023-02-15T05:43:20;101777.25;;;2.37;91.05
13952;BME280;39535;52.192;9.886;2023-02-15T05:45:49;101780.16;;;2.47;90.09
13952;BME280;39535;52.192;9.886;2023-02-15T05:48:16;101795.63;;;2.47;89.44
13952;BME280;39535;52.192;9.886;2023-02-15T05:50:43;101811.75;;;2.41;88.80
13952;BME280;39535;52.192;9.886;2023-02-15T05:53:10;101819.81;;;2.26;89.30
13952;BME280;39535;52.192;9.886;2023-02-15T05:55:37;101822.72;;;1.90;89.39
13952;BME280;39535;52.192;9.886;2023-02-15T05:58:04;101792.25;;;1.35;91.96
13952;BME280;39535;52.192;9.886;2023-02-15T06:00:31;101740.66;;;1.32;93.27
13952;BME280;39535;52.192;9.886;2023-02-15T06:02:59;101712.97;;;1.47;92.64
13952;BME280;39535;52.192;9.886;2023-02-15T06:05:25;101708.34;;;1.61;92.78
13952;BME280;39535;52.192;9.886;2023-02-15T06:07:51;101725.06;;;1.50;91.74
13952;BME280;39535;52.192;9.886;2023-02-15T06:10:18;101719.91;;;1.50;92.34
13952;BME280;39535;52.192;9.886;2023-02-15T06:12:44;101720.06;;;1.53;92.58
13952;BME280;39535;52.192;9.886;2023-02-15T06:15:11;101706.41;;;1.55;93.12
13952;BME280;39535;52.192;9.886;2023-02-15T06:17:40;101701.50;;;1.62;92.65
13952;BME280;39535;52.192;9.886;2023-02-15T06:20:09;101701.88;;;1.72;92.46
13952;BME280;39535;52.192;9.886;2023-02-15T06:22:36;101712.66;;;1.62;91.77
13952;BME280;39535;52.192;9.886;2023-02-15T06:25:02;101719.44;;;1.60;91.51
13952;BME280;39535;52.192;9.886;2023-02-15T06:27:29;101713.38;;;1.58;92.25
13952;BME280;39535;52.192;9.886;2023-02-15T06:29:56;101696.56;;;1.68;92.44
13952;BME280;39535;52.192;9.886;2023-02-15T06:32:22;101702.56;;;1.67;92.76
13952;BME280;39535;52.192;9.886;2023-02-15T06:34:48;101703.78;;;1.54;93.40
13952;BME280;39535;52.192;9.886;2023-02-15T06:37:16;101663.38;;;1.51;94.40
13952;BME280;39535;52.192;9.886;2023-02-15T06:39:43;101651.19;;;1.70;94.57
13952;BME280;39535;52.192;9.886;2023-02-15T06:42:09;101653.81;;;1.71;93.87
13952;BME280;39535;52.192;9.886;2023-02-15T06:44:36;101673.72;;;1.30;93.01
13952;BME280;39535;52.192;9.886;2023-02-15T06:47:02;101667.00;;;1.11;93.76
13952;BME280;39535;52.192;9.886;2023-02-15T06:49:29;101648.59;;;0.79;94.97
13952;BME280;39535;52.192;9.886;2023-02-15T06:51:55;101621.44;;;0.65;96.38
13952;BME280;39535;52.192;9.886;2023-02-15T06:54:23;101608.16;;;0.54;96.37
13952;BME280;39535;52.192;9.886;2023-02-15T06:56:49;101587.75;;;0.36;97.79
13952;BME280;39535;52.192;9.886;2023-02-15T06:59:16;101551.84;;;0.17;99.35
13952;BME280;39535;52.192;9.886;2023-02-15T07:01:42;101526.31;;;0.20;99.66
13952;BME280;39535;52.192;9.886;2023-02-15T07:04:09;101466.69;;;0.72;100.00
13952;BME280;39535;52.192;9.886;2023-02-15T07:06:35;101401.69;;;1.23;100.00
13952;BME280;39535;52.192;9.886;2023-02-15T07:09:02;101366.91;;;1.60;100.00
13952;BME280;39535;52.192;9.886;2023-02-15T07:11:30;101352.53;;;1.94;100.00
13952;BME280;39535;52.192;9.886;2023-02-15T07:14:14;101303.34;;;2.74;100.00
13952;BME280;39535;52.192;9.886;2023-02-15T07:16:41;101291.03;;;2.97;100.00
13952;BME280;39535;52.192;9.886;2023-02-15T07:19:07;101310.00;;;2.99;100.00
13952;BME280;39535;52.192;9.886;2023-02-15T07:21:34;101392.34;;;1.78;100.00
13952;BME280;39535;52.192;9.886;2023-02-15T07:24:00;101456.72;;;1.04;100.00
13952;BME280;39535;52.192;9.886;2023-02-15T07:26:27;101484.25;;;1.07;100.00
13952;BME280;39535;52.192;9.886;2023-02-15T07:28:55;101462.78;;;1.54;100.00
13952;BME280;39535;52.192;9.886;2023-02-15T07:31:21;101490.84;;;1.47;100.00
13952;BME280;39535;52.192;9.886;2023-02-15T07:33:48;101520.09;;;1.50;100.00
13952;BME280;39535;52.192;9.886;2023-02-15T07:36:14;101520.97;;;1.75;100.00
13952;BME280;39535;52.192;9.886;2023-02-15T07:38:41;101509.31;;;2.12;100.00
13952;BME280;39535;52.192;9.886;2023-02-15T07:41:09;101597.94;;;1.45;97.61
13952;BME280;39535;52.192;9.886;2023-02-15T07:43:37;101632.22;;;0.77;97.28
13952;BME280;39535;52.192;9.886;2023-02-15T07:46:07;101621.09;;;0.56;99.07
13952;BME280;39535;52.192;9.886;2023-02-15T07:48:34;101610.28;;;0.65;100.00
13952;BME280;39535;52.192;9.886;2023-02-15T07:51:02;101606.34;;;0.52;100.00
13952;BME280;39535;52.192;9.886;2023-02-15T07:53:29;101589.19;;;0.30;100.00
13952;BME280;39535;52.192;9.886;2023-02-15T07:55:58;101570.69;;;0.17;100.00
13952;BME280;39535;52.192;9.886;2023-02-15T07:58:24;101541.75;;;0.22;100.00
13952;BME280;39535;52.192;9.886;2023-02-15T08:01:12;101510.56;;;0.54;100.00
13952;BME280;39535;52.192;9.886;2023-02-15T08:03:39;101515.63;;;0.53;100.00
13952;BME280;39535;52.192;9.886;2023-02-15T08:06:06;101529.84;;;0.66;100.00
13952;BME280;39535;52.192;9.886;2023-02-15T08:08:33;101517.72;;;0.63;100.00
13952;BME280;39535;52.192;9.886;2023-02-15T08:11:01;101520.34;;;0.87;100.00
13952;BME280;39535;52.192;9.886;2023-02-15T08:13:42;101532.56;;;0.93;100.00
13952;BME280;39535;52.192;9.886;2023-02-15T08:16:21;101525.31;;;1.28;100.00
13952;BME280;39535;52.192;9.886;2023-02-15T08:18:48;101538.06;;;1.49;100.00
13952;BME280;39535;52.192;9.886;2023-02-15T08:21:14;101521.38;;;1.87;100.00
13952;BME280;39535;52.192;9.886;2023-02-15T08:23:41;101541.13;;;1.88;100.00
13952;BME280;39535;52.192;9.886;2023-02-15T08:26:07;101591.47;;;1.78;98.44
13952;BME280;39535;52.192;9.886;2023-02-15T08:28:34;101604.75;;;1.91;98.37
13952;BME280;39535;52.192;9.886;2023-02-15T08:31:04;101601.03;;;1.83;98.60
13952;BME280;39535;52.192;9.886;2023-02-15T08:33:32;101597.75;;;1.87;98.94
13952;BME280;39535;52.192;9.886;2023-02-15T08:36:02;101602.44;;;1.98;97.59
13952;BME280;39535;52.192;9.886;2023-02-15T08:38:29;101595.03;;;2.33;98.49
13952;BME280;39535;52.192;9.886;2023-02-15T08:40:55;101593.47;;;2.64;98.63
13952;BME280;39535;52.192;9.886;2023-02-15T08:43:22;101599.25;;;2.84;98.20
13952;BME280;39535;52.192;9.886;2023-02-15T08:45:48;101609.22;;;3.01;96.81
13952;BME280;39535;52.192;9.886;2023-02-15T08:48:14;101633.28;;;3.28;95.90
13952;BME280;39535;52.192;9.886;2023-02-15T08:50:42;101708.47;;;3.41;90.03
13952;BME280;39535;52.192;9.886;2023-02-15T08:53:09;101754.06;;;3.67;90.64
13952;BME280;39535;52.192;9.886;2023-02-15T08:55:35;101806.44;;;3.92;88.29
13952;BME280;39535;52.192;9.886;2023-02-15T08:58:01;101860.94;;;4.00;83.90
13952;BME280;39535;52.192;9.886;2023-02-15T09:00:28;101931.84;;;4.09;83.10
13952;BME280;39535;52.192;9.886;2023-02-15T09:02:54;101975.59;;;4.03;82.80
13952;BME280;39535;52.192;9.886;2023-02-15T09:05:21;102004.09;;;4.06;82.77
13952;BME280;39535;52.192;9.886;2023-02-15T09:07:49;102064.09;;;3.97;80.49
13952;BME280;39535;52.192;9.886;2023-02-15T09:10:15;102083.06;;;3.98;80.21
13952;BME280;39535;52.192;9.886;2023-02-15T09:12:42;102092.66;;;4.01;80.86
13952;BME280;39535;52.192;9.886;2023-02-15T09:15:08;102109.78;;;3.98;81.09
13952;BME280;39535;52.192;9.886;2023-02-15T09:17:36;102100.28;;;3.97;82.43
13952;BME280;39535;52.192;9.886;2023-02-15T09:20:03;102069.22;;;3.96;83.70
13952;BME280;39535;52.192;9.886;2023-02-15T09:22:29;102056.34;;;3.97;83.31
13952;BME280;39535;52.192;9.886;2023-02-15T09:24:57;102025.41;;;3.49;87.76
13952;BME280;39535;52.192;9.886;2023-02-15T09:27:24;101908.19;;;3.18;90.94
13952;BME280;39535;52.192;9.886;2023-02-15T09:29:50;101840.44;;;3.24;91.86
13952;BME280;39535;52.192;9.886;2023-02-15T09:32:17;101813.38;;;3.38;91.56
13952;BME280;39535;52.192;9.886;2023-02-15T09:34:43;101800.09;;;3.53;91.28
13952;BME280;39535;52.192;9.886;2023-02-15T09:37:09;101795.31;;;3.66;90.61
13952;BME280;39535;52.192;9.886;2023-02-15T09:39:37;101798.81;;;3.68;90.59
13952;BME280;39535;52.192;9.886;2023-02-15T09:42:24;101797.41;;;3.77;89.93
13952;BME280;39535;52.192;9.886;2023-02-15T09:45:12;101816.47;;;3.81;89.21
13952;BME280;39535;52.192;9.886;2023-02-15T09:47:54;101834.91;;;3.66;88.90
13952;BME280;39535;52.192;9.886;2023-02-15T09:50:31;101793.50;;;3.36;92.04
13952;BME280;39535;52.192;9.886;2023-02-15T09:53:10;101738.16;;;3.26;93.31
13952;BME280;39535;52.192;9.886;2023-02-15T09:55:48;101707.56;;;3.38;93.44
13952;BME280;39535;52.192;9.886;2023-02-15T09:58:25;101691.50;;;3.47;93.49
13952;BME280;39535;52.192;9.886;2023-02-15T10:00:59;101686.88;;;3.66;93.05
13952;BME280;39535;52.192;9.886;2023-02-15T10:03:42;101692.38;;;3.78;93.09
13952;BME280;39535;52.192;9.886;2023-02-15T10:06:28;101695.47;;;3.95;91.88
13952;BME280;39535;52.192;9.886;2023-02-15T10:09:06;101709.53;;;4.06;91.89
13952;BME280;39535;52.192;9.886;2023-02-15T10:11:53;101706.38;;;4.15;92.13
13952;BME280;39535;52.192;9.886;2023-02-15T10:14:44;101685.94;;;4.24;92.35
13952;BME280;39535;52.192;9.886;2023-02-15T10:17:23;101725.31;;;4.15;90.58
13952;BME280;39535;52.192;9.886;2023-02-15T10:20:02;101735.25;;;4.32;90.75
13952;BME280;39535;52.192;9.886;2023-02-15T10:22:42;101762.00;;;4.32;89.07
13952;BME280;39535;52.192;9.886;2023-02-15T10:25:20;101793.78;;;4.30;88.08
13952;BME280;39535;52.192;9.886;2023-02-15T10:27:50;101834.09;;;4.23;86.88
13952;BME280;39535;52.192;9.886;2023-02-15T10:30:21;101839.75;;;4.40;87.33
13952;BME280;39535;52.192;9.886;2023-02-15T10:32:59;101871.50;;;4.36;85.88
13952;BME280;39535;52.192;9.886;2023-02-15T10:35:32;101883.47;;;4.32;86.18
13952;BME280;39535;52.192;9.886;2023-02-15T10:38:08;101867.34;;;4.41;86.39
13952;BME280;39535;52.192;9.886;2023-02-15T10:40:41;101853.72;;;4.47;87.08
13952;BME280;39535;52.192;9.886;2023-02-15T10:43:20;101840.81;;;4.47;87.51
13952;BME280;39535;52.192;9.886;2023-02-15T10:45:56;101845.19;;;4.49;87.51
13952;BME280;39535;52.192;9.886;2023-02-15T10:48:40;101875.91;;;4.38;85.78
13952;BME280;39535;52.192;9.886;2023-02-15T10:51:17;101871.50;;;4.36;86.86
13952;BME280;39535;52.192;9.886;2023-02-15T10:54:01;101856.31;;;4.47;86.90
13952;BME280;39535;52.192;9.886;2023-02-15T10:56:36;101847.97;;;4.57;87.10
13952;BME280;39535;52.192;9.886;2023-02-15T10:59:17;101875.84;;;4.67;85.37
13952;BME280;39535;52.192;9.886;2023-02-15T11:01:53;101908.78;;;4.73;84.24
13952;BME280;39535;52.192;9.886;2023-02-15T11:04:38;101939.03;;;4.75;83.36
13952;BME280;39535;52.192;9.886;2023-02-15T11:07:09;101918.66;;;4.86;85.27
13952;BME280;39535;52.192;9.886;2023-02-15T11:09:41;101900.94;;;5.00;85.45
13952;BME280;39535;52.192;9.886;2023-02-15T11:12:12;101930.91;;;4.93;82.93
13952;BME280;39535;52.192;9.886;2023-02-15T11:14:47;101924.38;;;5.06;84.53
13952;BME280;39535;52.192;9.886;2023-02-15T11:17:20;101948.50;;;5.05;83.35
13952;BME280;39535;52.192;9.886;2023-02-15T11:19:55;101967.63;;;4.80;82.05
13952;BME280;39535;52.192;9.886;2023-02-15T11:22:26;101978.22;;;4.89;82.60
13952;BME280;39535;52.192;9.886;2023-02-15T11:24:53;101971.72;;;4.73;82.03
13952;BME280;39535;52.192;9.886;2023-02-15T11:27:25;101961.84;;;4.89;83.19
13952;BME280;39535;52.192;9.886;2023-02-15T11:29:57;101945.09;;;5.06;83.20
13952;BME280;39535;52.192;9.886;2023-02-15T11:32:28;101959.16;;;5.16;82.17
13952;BME280;39535;52.192;9.886;2023-02-15T11:35:01;101950.00;;;5.29;83.33
13952;BME280;39535;52.192;9.886;2023-02-15T11:37:35;101933.94;;;5.41;82.80
13952;BME280;39535;52.192;9.886;2023-02-15T11:40:14;101921.44;;;5.57;82.79
13952;BME280;39535;52.192;9.886;2023-02-15T11:42:42;101927.59;;;5.63;82.36
13952;BME280;39535;52.192;9.886;2023-02-15T11:45:19;101966.03;;;5.79;80.81
13952;BME280;39535;52.192;9.886;2023-02-15T11:47:49;101997.72;;;6.02;78.54
13952;BME280;39535;52.192;9.886;2023-02-15T11:50:19;102055.22;;;6.21;78.21
13952;BME280;39535;52.192;9.886;2023-02-15T11:52:47;102080.38;;;6.25;77.51
13952;BME280;39535;52.192;9.886;2023-02-15T11:55:19;102103.94;;;6.32;76.21
13952;BME280;39535;52.192;9.886;2023-02-15T11:57:50;102174.97;;;6.39;71.93
13952;BME280;39535;52.192;9.886;2023-02-15T12:00:25;102228.97;;;6.54;71.88
13952;BME280;39535;52.192;9.886;2023-02-15T12:02:57;102269.06;;;6.65;71.11
13952;BME280;39535;52.192;9.886;2023-02-15T12:05:25;102306.88;;;6.89;70.95
13952;BME280;39535;52.192;9.886;2023-02-15T12:07:53;102316.16;;;7.12;71.78
13952;BME280;39535;52.192;9.886;2023-02-15T12:10:24;102274.00;;;6.89;73.88
13952;BME280;39535;52.192;9.886;2023-02-15T12:13:09;102233.91;;;6.76;75.22
13952;BME280;39535;52.192;9.886;2023-02-15T12:15:36;102204.69;;;6.85;75.66
13952;BME280;39535;52.192;9.886;2023-02-15T12:18:04;102206.47;;;6.86;73.76
13952;BME280;39535;52.192;9.886;2023-02-15T12:20:33;102188.88;;;7.11;75.11
13952;BME280;39535;52.192;9.886;2023-02-15T12:23:03;102227.75;;;7.08;73.18
13952;BME280;39535;52.192;9.886;2023-02-15T12:25:35;102211.63;;;7.61;73.07
13952;BME280;39535;52.192;9.886;2023-02-15T12:28:03;102228.69;;;8.31;71.42
13952;BME280;39535;52.192;9.886;2023-02-15T12:30:32;102260.69;;;9.22;69.37
13952;BME280;39535;52.192;9.886;2023-02-15T12:33:13;102324.19;;;9.82;64.75
13952;BME280;39535;52.192;9.886;2023-02-15T12:35:42;102448.19;;;9.64;63.21
13952;BME280;39535;52.192;9.886;2023-02-15T12:38:22;102498.72;;;9.25;62.86
13952;BME280;39535;52.192;9.886;2023-02-15T12:40:57;102536.91;;;9.22;62.99
13952;BME280;39535;52.192;9.886;2023-02-15T12:46:37;102539.88;;;10.38;60.62
13952;BME280;39535;52.192;9.886;2023-02-15T12:52:44;102632.41;;;11.79;55.57
13952;BME280;39535;52.192;9.886;2023-02-15T12:55:19;102695.13;;;11.72;56.96
13952;BME280;39535;52.192;9.886;2023-02-15T12:57:46;102728.94;;;10.49;58.63
13952;BME280;39535;52.192;9.886;2023-02-15T13:00:27;102685.59;;;10.60;59.30
13952;BME280;39535;52.192;9.886;2023-02-15T13:02:57;102704.38;;;8.78;62.12
13952;BME280;39535;52.192;9.886;2023-02-15T13:05:28;102609.97;;;8.52;65.61
13952;BME280;39535;52.192;9.886;2023-02-15T13:08:00;102525.72;;;8.47;65.78
13952;BME280;39535;52.192;9.886;2023-02-15T13:10:29;102476.19;;;8.44;66.60
13952;BME280;39535;52.192;9.886;2023-02-15T13:12:57;102413.75;;;8.88;65.87
13952;BME280;39535;52.192;9.886;2023-02-15T13:15:26;102394.50;;;8.78;66.41
13952;BME280;39535;52.192;9.886;2023-02-15T13:17:55;102373.81;;;8.43;66.29
13952;BME280;39535;52.192;9.886;2023-02-15T13:20:22;102344.56;;;8.55;67.06
13952;BME280;39535;52.192;9.886;2023-02-15T13:22:50;102308.44;;;8.70;67.98
13952;BME280;39535;52.192;9.886;2023-02-15T13:25:22;102288.84;;;8.92;66.71